createdAt,value
2018-06-04T00:01:50.853Z,100203.33
2018-06-04T00:04:18.709Z,100198.61
2018-06-04T00:06:46.397Z,100199.08
2018-06-04T00:09:14.166Z,100187.39
2018-06-04T00:11:41.844Z,100189.22
2018-06-04T00:14:09.438Z,100179.84
2018-06-04T00:16:37.330Z,100183.48
2018-06-04T00:19:05.498Z,100182.04
2018-06-04T00:21:39.783Z,100176.80
2018-06-04T00:24:07.777Z,100181.93
2018-06-04T00:26:35.389Z,100178.03
2018-06-04T00:29:03.070Z,100174.62
2018-06-04T00:31:30.974Z,100189.82
2018-06-04T00:33:58.581Z,100181.79
2018-06-04T00:36:26.193Z,100189.82
2018-06-04T00:38:54.071Z,100196.16
2018-06-04T00:41:21.636Z,100187.03
2018-06-04T00:43:49.253Z,100192.63
2018-06-04T00:46:17.124Z,100187.28
2018-06-04T00:48:44.743Z,100187.52
2018-06-04T00:51:12.363Z,100193.98
2018-06-04T00:53:40.197Z,100195.44
2018-06-04T00:56:18.073Z,100196.91
2018-06-04T00:58:46.275Z,100201.63
2018-06-04T01:01:14.268Z,100201.88
2018-06-04T01:03:41.837Z,100189.20
2018-06-04T01:06:09.952Z,100196.02
2018-06-04T01:08:37.631Z,100206.73
2018-06-04T01:11:05.961Z,100193.20
2018-06-04T01:13:34.009Z,100189.30
2018-06-04T01:16:01.677Z,100205.99
2018-06-04T01:18:29.480Z,100204.03
2018-06-04T01:20:57.951Z,100217.05
2018-06-04T01:23:25.722Z,100215.95
2018-06-04T01:25:53.496Z,100211.78
2018-06-04T01:28:21.516Z,100203.64
2018-06-04T01:30:49.221Z,100207.89
2018-06-04T01:33:16.887Z,100205.92
2018-06-04T01:35:45.044Z,100220.88
2018-06-04T01:38:19.426Z,100177.91
2018-06-04T01:40:47.352Z,100176.81
2018-06-04T01:43:15.037Z,100181.89
2018-06-04T01:45:42.744Z,100197.70
2018-06-04T01:48:10.884Z,100200.97
2018-06-04T01:50:38.563Z,100195.73
2018-06-04T01:53:06.242Z,100196.95
2018-06-04T01:55:34.422Z,100188.17
2018-06-04T01:58:02.098Z,100198.64
2018-06-04T02:00:29.760Z,100196.55
2018-06-04T02:02:57.860Z,100222.07
2018-06-04T02:05:25.608Z,100205.78
2018-06-04T02:07:53.225Z,100206.02
2018-06-04T02:10:21.336Z,100215.60
2018-06-04T02:12:48.928Z,100230.42
2018-06-04T02:15:16.578Z,100233.21
2018-06-04T02:17:44.552Z,100244.14
2018-06-04T02:20:12.195Z,100228.33
2018-06-04T02:22:40.502Z,100229.89
2018-06-04T02:25:08.385Z,100241.53
2018-06-04T02:27:35.974Z,100233.27
2018-06-04T02:30:04.060Z,100252.56
2018-06-04T02:32:31.965Z,100234.44
2018-06-04T02:34:59.585Z,100231.52
2018-06-04T02:37:27.233Z,100238.78
2018-06-04T02:39:55.159Z,100226.15
2018-06-04T02:42:23.001Z,100251.88
2018-06-04T02:44:50.614Z,100265.72
2018-06-04T02:47:18.490Z,100264.13
2018-06-04T02:49:46.320Z,100254.55
2018-06-04T02:52:13.981Z,100244.80
2018-06-04T02:54:41.802Z,100244.09
2018-06-04T02:57:09.488Z,100263.84
2018-06-04T02:59:37.144Z,100272.95
2018-06-04T03:02:04.940Z,100259.81
2018-06-04T03:04:32.647Z,100244.87
2018-06-04T03:07:00.265Z,100259.56
2018-06-04T03:09:27.924Z,100263.77
2018-06-04T03:11:55.785Z,100261.09
2018-06-04T03:14:23.389Z,100259.03
2018-06-04T03:16:51.164Z,100250.16
2018-06-04T03:19:19.059Z,100244.06
2018-06-04T03:21:46.692Z,100268.50
2018-06-04T03:24:14.655Z,100259.14
2018-06-04T03:26:42.355Z,100264.59
2018-06-04T03:29:09.940Z,100269.44
2018-06-04T03:31:37.948Z,100285.97
2018-06-04T03:34:05.837Z,100271.86
2018-06-04T03:36:33.568Z,100272.83
2018-06-04T03:39:01.391Z,100278.75
2018-06-04T03:41:29.061Z,100273.52
2018-06-04T03:43:56.642Z,100270.97
2018-06-04T03:46:24.325Z,100266.95
2018-06-04T03:48:52.150Z,100270.85
2018-06-04T03:51:19.815Z,100278.17
2018-06-04T03:53:47.649Z,100274.53
2018-06-04T03:56:15.436Z,100295.43
2018-06-04T03:58:43.056Z,100282.66
2018-06-04T04:01:10.800Z,100275.33
2018-06-04T04:03:38.706Z,100298.03
2018-06-04T04:06:06.330Z,100295.00
2018-06-04T04:08:33.986Z,100287.86
2018-06-04T04:11:01.854Z,100290.13
2018-06-04T04:13:29.444Z,100297.53
2018-06-04T04:15:57.161Z,100295.55
2018-06-04T04:18:25.142Z,100300.53
2018-06-04T04:20:52.700Z,100302.34
2018-06-04T04:23:20.596Z,100305.98
2018-06-04T04:25:48.566Z,100311.79
2018-06-04T04:28:16.272Z,100301.86
2018-06-04T04:30:44.117Z,100307.35
2018-06-04T04:33:11.900Z,100306.38
2018-06-04T04:35:39.521Z,100316.23
2018-06-04T04:38:07.318Z,100305.91
2018-06-04T04:40:35.016Z,100304.57
2018-06-04T04:43:02.619Z,100318.29
2018-06-04T04:45:30.423Z,100303.02
2018-06-04T04:47:58.239Z,100299.01
2018-06-04T04:50:26.074Z,100289.19
2018-06-04T04:52:53.866Z,100302.44
2018-06-04T04:55:21.578Z,100290.78
2018-06-04T04:57:49.256Z,100298.69
2018-06-04T05:00:17.456Z,100306.70
2018-06-04T05:02:45.251Z,100308.90
2018-06-04T05:05:12.933Z,100305.72
2018-06-04T05:07:40.709Z,100305.61
2018-06-04T05:10:08.540Z,100301.38
2018-06-04T05:12:36.223Z,100300.22
2018-06-04T05:15:03.953Z,100303.44
2018-06-04T05:17:31.675Z,100311.23
2018-06-04T05:19:59.286Z,100308.22
2018-06-04T05:22:27.406Z,100308.94
2018-06-04T05:24:55.096Z,100301.32
2018-06-04T05:27:23.394Z,100297.56
2018-06-04T05:29:51.203Z,100300.23
2018-06-04T05:32:18.980Z,100302.80
2018-06-04T05:34:46.540Z,100297.81
2018-06-04T05:37:14.309Z,100307.27
2018-06-04T05:39:42.057Z,100308.25
2018-06-04T05:42:09.732Z,100318.83
2018-06-04T05:44:37.506Z,100266.84
2018-06-04T05:47:05.382Z,100334.76
2018-06-04T05:49:33.015Z,100313.48
2018-06-04T05:52:00.913Z,100312.91
2018-06-04T05:54:28.680Z,100318.03
2018-06-04T05:56:56.301Z,100322.28
2018-06-04T05:59:24.071Z,100323.04
2018-06-04T06:01:51.749Z,100318.53
2018-06-04T06:04:19.484Z,100321.59
2018-06-04T06:06:47.247Z,100341.13
2018-06-04T06:09:15.147Z,100331.20
2018-06-04T06:11:42.748Z,100332.81
2018-06-04T06:14:10.503Z,100346.79
2018-06-04T06:16:38.224Z,100337.60
2018-06-04T06:19:05.872Z,100358.16
2018-06-04T06:21:33.728Z,100355.77
2018-06-04T06:24:01.515Z,100355.90
2018-06-04T06:26:29.094Z,100363.95
2018-06-04T06:28:57.066Z,100344.52
2018-06-04T06:31:25.121Z,100348.31
2018-06-04T06:33:55.678Z,100354.05
2018-06-04T06:36:23.722Z,100349.42
2018-06-04T06:38:51.585Z,100352.20
2018-06-04T06:41:19.165Z,100345.30
2018-06-04T06:43:46.905Z,100343.62
2018-06-04T06:46:14.662Z,100347.17
2018-06-04T06:48:42.339Z,100359.66
2018-06-04T06:51:10.148Z,100348.14
2018-06-04T06:53:38.022Z,100335.36
2018-06-04T06:56:05.623Z,100361.30
2018-06-04T06:58:33.358Z,100350.88
2018-06-04T07:01:01.075Z,100349.78
2018-06-04T07:03:28.699Z,100357.58
2018-06-04T07:05:56.512Z,100362.70
2018-06-04T07:08:24.250Z,100360.77
2018-06-04T07:10:51.853Z,100360.66
2018-06-04T07:13:19.661Z,100364.91
2018-06-04T07:15:47.420Z,100353.97
2018-06-04T07:18:15.029Z,100366.14
2018-06-04T07:20:42.808Z,100352.44
2018-06-04T07:23:10.686Z,100336.14
2018-06-04T07:25:38.308Z,100354.53
2018-06-04T07:28:06.141Z,100325.20
2018-06-04T07:30:34.128Z,100323.38
2018-06-04T07:33:01.789Z,100337.52
2018-06-04T07:35:29.544Z,100340.80
2018-06-04T07:37:57.284Z,100345.55
2018-06-04T07:40:24.928Z,100344.45
2018-06-04T07:42:52.700Z,100351.15
2018-06-04T07:45:20.463Z,100346.53
2018-06-04T07:47:48.102Z,100358.23
2018-06-04T07:50:16.371Z,100327.19
2018-06-04T07:52:44.440Z,100347.28
2018-06-04T07:55:12.042Z,100364.10
2018-06-04T07:57:39.887Z,100333.62
2018-06-04T08:00:07.758Z,100350.80
2018-06-04T08:02:35.425Z,100346.89
2018-06-04T08:05:03.363Z,100344.60
2018-06-04T08:07:31.210Z,100351.92
2018-06-04T08:09:58.916Z,100353.50
2018-06-04T08:12:26.720Z,100329.75
2018-06-04T08:14:54.609Z,100339.15
2018-06-04T08:17:22.268Z,100343.55
2018-06-04T08:19:50.051Z,100356.70
2018-06-04T08:22:17.756Z,100344.78
2018-06-04T08:24:45.380Z,100326.27
2018-06-04T08:27:13.156Z,100333.80
2018-06-04T08:29:40.901Z,100349.14
2018-06-04T08:32:08.695Z,100341.59
2018-06-04T08:34:36.527Z,100344.50
2018-06-04T08:37:04.265Z,100347.06
2018-06-04T08:39:31.899Z,100337.56
2018-06-04T08:41:59.737Z,100340.00
2018-06-04T08:44:27.524Z,100326.00
2018-06-04T08:46:55.092Z,100333.67
2018-06-04T08:49:22.971Z,100334.17
2018-06-04T08:51:50.851Z,100332.37
2018-06-04T08:54:18.462Z,100328.11
2018-06-04T08:56:46.285Z,100330.06
2018-06-04T08:59:14.184Z,100332.13
2018-06-04T09:01:41.774Z,100316.39
2018-06-04T09:04:09.532Z,100317.84
2018-06-04T09:06:37.191Z,100317.09
2018-06-04T09:09:06.044Z,100326.98
2018-06-04T09:11:33.904Z,100325.38
2018-06-04T09:14:01.776Z,100340.63
2018-06-04T09:16:29.667Z,100340.28
2018-06-04T09:18:57.426Z,100340.30
2018-06-04T09:21:25.221Z,100330.66
2018-06-04T09:23:52.865Z,100334.17
2018-06-04T09:26:20.785Z,100325.77
2018-06-04T09:28:48.653Z,100339.78
2018-06-04T09:31:16.264Z,100329.27
2018-06-04T09:33:45.150Z,100323.55
2018-06-04T09:36:13.967Z,100324.89
2018-06-04T09:38:41.671Z,100321.33
2018-06-04T09:41:09.426Z,100299.95
2018-06-04T09:43:37.188Z,100333.95
2018-06-04T09:46:04.924Z,100339.42
2018-06-04T09:49:03.571Z,100331.15
2018-06-04T09:51:31.196Z,100332.13
2018-06-04T09:53:58.882Z,100322.98
2018-06-04T09:56:26.920Z,100321.37
2018-06-04T09:58:54.500Z,100318.92
2018-06-04T10:01:22.111Z,100306.95
2018-06-04T10:03:50.057Z,100315.03
2018-06-04T10:06:17.636Z,100312.70
2018-06-04T10:08:45.213Z,100324.41
2018-06-04T10:11:13.144Z,100320.47
2018-06-04T10:13:41.237Z,100309.88
2018-06-04T10:16:08.871Z,100305.70
2018-06-04T10:18:37.010Z,100328.69
2018-06-04T10:21:04.589Z,100323.84
2018-06-04T10:23:32.231Z,100268.41
2018-06-04T10:26:00.429Z,100317.44
2018-06-04T10:28:27.980Z,100329.10
2018-06-04T10:30:55.664Z,100344.56
2018-06-04T10:33:23.591Z,100319.45
2018-06-04T10:35:51.519Z,100316.64
2018-06-04T10:38:19.131Z,100345.63
2018-06-04T10:40:47.058Z,100334.49
2018-06-04T10:43:14.682Z,100328.36
2018-06-04T10:45:42.460Z,100326.98
2018-06-04T10:48:10.211Z,100319.34
2018-06-04T10:50:37.800Z,100322.96
2018-06-04T10:53:05.705Z,100320.69
2018-06-04T10:55:33.534Z,100329.27
2018-06-04T10:58:01.171Z,100324.39
2018-06-04T11:00:28.915Z,100316.57
2018-06-04T11:02:56.652Z,100321.38
2018-06-04T11:05:24.251Z,100308.50
2018-06-04T11:07:52.105Z,100307.47
2018-06-04T11:10:20.041Z,100313.16
2018-06-04T11:12:47.596Z,100308.63
2018-06-04T11:15:15.323Z,100342.04
2018-06-04T11:17:43.082Z,100317.03
2018-06-04T11:20:10.758Z,100318.16
2018-06-04T11:22:38.692Z,100310.59
2018-06-04T11:25:06.343Z,100323.56
2018-06-04T11:27:33.955Z,100325.52
2018-06-04T11:30:01.879Z,100328.97
2018-06-04T11:32:29.676Z,100329.97
2018-06-04T11:34:57.270Z,100325.66
2018-06-04T11:37:25.359Z,100320.00
2018-06-04T11:39:53.098Z,100331.17
2018-06-04T11:42:20.706Z,100320.98
2018-06-04T11:44:48.590Z,100328.08
2018-06-04T11:47:16.345Z,100327.80
2018-06-04T11:49:43.982Z,100334.94
2018-06-04T11:52:11.767Z,100334.78
2018-06-04T11:54:39.601Z,100331.64
2018-06-04T11:57:07.206Z,100336.83
2018-06-04T11:59:35.040Z,100325.24
2018-06-04T12:02:02.822Z,100337.32
2018-06-04T12:04:30.444Z,100345.70
2018-06-04T12:06:58.275Z,100330.42
2018-06-04T12:09:26.080Z,100336.63
2018-06-04T12:11:53.737Z,100323.77
2018-06-04T12:14:21.388Z,100324.30
2018-06-04T12:16:49.323Z,100326.34
2018-06-04T12:19:16.887Z,100329.75
2018-06-04T12:21:44.604Z,100363.84
2018-06-04T12:24:12.464Z,100344.34
2018-06-04T12:26:40.062Z,100329.48
2018-06-04T12:29:07.911Z,100338.69
2018-06-04T12:31:35.803Z,100341.83
2018-06-04T12:34:03.429Z,100328.79
2018-06-04T12:36:31.150Z,100337.80
2018-06-04T12:38:59.066Z,100343.66
2018-06-04T12:41:26.696Z,100333.08
2018-06-04T12:43:54.408Z,100340.20
2018-06-04T12:46:22.260Z,100342.18
2018-06-04T12:48:49.893Z,100329.70
2018-06-04T12:51:17.755Z,100334.28
2018-06-04T12:53:45.617Z,100335.14
2018-06-04T12:56:13.231Z,100340.52
2018-06-04T12:58:40.953Z,100350.23
2018-06-04T13:01:08.724Z,100366.86
2018-06-04T13:03:36.240Z,100356.61
2018-06-04T13:06:04.010Z,100356.92
2018-06-04T13:08:31.901Z,100365.74
2018-06-04T13:10:59.521Z,100354.69
2018-06-04T13:13:27.324Z,100351.56
2018-06-04T13:15:55.156Z,100349.93
2018-06-04T13:18:22.734Z,100348.20
2018-06-04T13:20:50.685Z,100356.14
2018-06-04T13:23:18.444Z,100374.41
2018-06-04T13:25:46.081Z,100367.84
2018-06-04T13:28:13.881Z,100369.56
2018-06-04T13:30:41.729Z,100350.23
2018-06-04T13:33:09.305Z,100352.70
2018-06-04T13:35:37.095Z,100349.28
2018-06-04T13:38:04.839Z,100347.94
2018-06-04T13:40:32.546Z,100355.66
2018-06-04T13:43:00.359Z,100357.67
2018-06-04T13:45:28.046Z,100352.31
2018-06-04T13:47:55.681Z,100347.92
2018-06-04T13:50:23.434Z,100356.72
2018-06-04T13:52:51.287Z,100352.55
2018-06-04T13:55:18.909Z,100351.91
2018-06-04T13:57:46.791Z,100370.38
2018-06-04T14:00:14.649Z,100353.17
2018-06-04T14:02:42.321Z,100356.86
2018-06-04T14:05:10.063Z,100342.34
2018-06-04T14:07:37.873Z,100347.20
2018-06-04T14:10:05.632Z,100367.88
2018-06-04T14:12:33.311Z,100358.95
2018-06-04T14:15:00.971Z,100362.58
2018-06-04T14:17:28.603Z,100367.21
2018-06-04T14:19:56.420Z,100360.16
2018-06-04T14:22:24.311Z,100382.80
2018-06-04T14:24:51.853Z,100359.01
2018-06-04T14:27:19.800Z,100382.84
2018-06-04T14:29:47.644Z,100380.77
2018-06-04T14:32:15.300Z,100381.81
2018-06-04T14:34:43.185Z,100378.39
2018-06-04T14:37:10.982Z,100380.95
2018-06-04T14:39:38.662Z,100391.23
2018-06-04T14:42:06.660Z,100384.50
2018-06-04T14:44:34.474Z,100393.82
2018-06-04T14:47:02.059Z,100375.41
2018-06-04T14:49:29.999Z,100387.11
2018-06-04T14:51:57.671Z,100394.81
2018-06-04T14:54:25.387Z,100396.03
2018-06-04T14:56:53.192Z,100395.04
2018-06-04T14:59:21.006Z,100399.80
2018-06-04T15:01:48.668Z,100390.23
2018-06-04T15:04:16.653Z,100384.98
2018-06-04T15:06:44.458Z,100390.44
2018-06-04T15:09:12.064Z,100394.08
2018-06-04T15:11:39.848Z,100406.83
2018-06-04T15:14:07.721Z,100407.48
2018-06-04T15:16:35.360Z,100431.83
2018-06-04T15:19:03.129Z,100420.47
2018-06-04T15:21:30.987Z,100407.64
2018-06-04T15:23:58.571Z,100416.88
2018-06-04T15:26:26.391Z,100408.08
2018-06-04T15:28:54.036Z,100407.22
2018-06-04T15:31:21.608Z,100421.77
2018-06-04T15:33:49.534Z,100345.08
2018-06-04T15:36:17.404Z,100407.65
2018-06-04T15:38:45.075Z,100412.93
2018-06-04T15:41:12.911Z,100404.52
2018-06-04T15:43:40.766Z,100411.94
2018-06-04T15:46:08.329Z,100411.48
2018-06-04T15:48:36.079Z,100416.73
2018-06-04T15:51:03.950Z,100430.30
2018-06-04T15:53:31.583Z,100407.88
2018-06-04T15:55:59.368Z,100422.72
2018-06-04T15:58:27.159Z,100424.38
2018-06-04T16:00:54.812Z,100419.58
2018-06-04T16:03:22.513Z,100430.52
2018-06-04T16:05:50.277Z,100439.95
2018-06-04T16:08:17.881Z,100439.33
2018-06-04T16:10:45.635Z,100451.80
2018-06-04T16:13:13.410Z,100446.33
2018-06-04T16:15:41.060Z,100452.26
2018-06-04T16:18:08.735Z,100446.64
2018-06-04T16:20:39.268Z,100462.44
2018-06-04T16:23:06.884Z,100452.65
2018-06-04T16:25:34.556Z,100450.91
2018-06-04T16:28:02.321Z,100444.11
2018-06-04T16:30:29.874Z,100465.92
2018-06-04T16:32:57.537Z,100473.14
2018-06-04T16:35:25.322Z,100465.20
2018-06-04T16:37:52.930Z,100459.99
2018-06-04T16:40:20.631Z,100449.00
2018-06-04T16:42:48.418Z,100460.73
2018-06-04T16:45:16.085Z,100469.29
2018-06-04T16:47:43.782Z,100468.80
2018-06-04T16:50:11.503Z,100469.27
2018-06-04T16:52:39.095Z,100471.22
2018-06-04T16:55:07.023Z,100478.13
2018-06-04T16:57:34.765Z,100477.00
2018-06-04T17:00:02.367Z,100491.83
2018-06-04T17:02:30.167Z,100476.09
2018-06-04T17:04:57.842Z,100499.98
2018-06-04T17:07:25.466Z,100499.34
2018-06-04T17:09:53.321Z,100487.87
2018-06-04T17:12:20.955Z,100452.59
2018-06-04T17:14:48.632Z,100496.50
2018-06-04T17:17:16.458Z,100500.27
2018-06-04T17:19:44.172Z,100511.22
2018-06-04T17:22:11.791Z,100505.93
2018-06-04T17:24:39.654Z,100511.98
2018-06-04T17:27:13.558Z,100509.64
2018-06-04T17:29:40.643Z,100514.36
2018-06-04T17:32:07.653Z,100505.84
2018-06-04T17:34:34.836Z,100522.02
2018-06-04T17:37:01.884Z,100523.36
2018-06-04T17:39:28.854Z,100535.52
2018-06-04T17:41:56.043Z,100525.98
2018-06-04T17:44:23.200Z,100532.66
2018-06-04T17:46:50.365Z,100515.47
2018-06-04T17:49:17.485Z,100525.91
2018-06-04T17:51:44.570Z,100537.23
2018-06-04T17:54:11.661Z,100532.09
2018-06-04T17:56:38.747Z,100525.52
2018-06-04T17:59:05.747Z,100530.88
2018-06-04T18:01:35.567Z,100534.89
2018-06-04T18:04:02.911Z,100522.84
2018-06-04T18:06:30.010Z,100534.27
2018-06-04T18:08:57.004Z,100532.09
2018-06-04T18:11:24.130Z,100527.47
2018-06-04T18:13:51.238Z,100531.37
2018-06-04T18:16:18.285Z,100531.98
2018-06-04T18:18:45.368Z,100536.70
2018-06-04T18:21:12.492Z,100542.97
2018-06-04T18:23:39.986Z,100544.64
2018-06-04T18:26:07.026Z,100540.38
2018-06-04T18:28:34.131Z,100543.38
2018-06-04T18:31:01.199Z,100539.19
2018-06-04T18:33:28.379Z,100534.81
2018-06-04T18:35:55.636Z,100543.42
2018-06-04T18:38:22.794Z,100551.20
2018-06-04T18:40:50.596Z,100553.98
2018-06-04T18:43:17.868Z,100549.17
2018-06-04T18:45:45.646Z,100550.16
2018-06-04T18:48:13.449Z,100550.27
2018-06-04T18:50:41.142Z,100554.23
2018-06-04T18:53:08.832Z,100562.09
2018-06-04T18:55:36.813Z,100565.09
2018-06-04T18:58:05.136Z,100574.30
2018-06-04T19:00:32.807Z,100564.50
2018-06-04T19:03:00.359Z,100579.53
2018-06-04T19:05:28.095Z,100587.50
2018-06-04T19:07:55.690Z,100585.25
2018-06-04T19:10:23.361Z,100585.28
2018-06-04T19:12:51.182Z,100587.61
2018-06-04T19:15:18.786Z,100594.60
2018-06-04T19:17:46.518Z,100594.45
2018-06-04T19:20:13.559Z,100598.30
2018-06-04T19:22:41.128Z,100606.13
2018-06-04T19:25:08.110Z,100599.75
2018-06-04T19:27:35.148Z,100605.50
2018-06-04T19:30:02.462Z,100611.92
2018-06-04T19:32:29.581Z,100616.97
2018-06-04T19:34:56.682Z,100619.68
2018-06-04T19:37:24.268Z,100619.01
2018-06-04T19:39:51.494Z,100628.30
2018-06-04T19:42:18.506Z,100645.95
2018-06-04T19:44:46.583Z,100637.84
2018-06-04T19:47:14.278Z,100648.09
2018-06-04T19:49:41.521Z,100647.05
2018-06-04T19:52:08.456Z,100653.05
2018-06-04T19:54:36.189Z,100664.89
2018-06-04T19:57:03.927Z,100662.39
2018-06-04T19:59:31.555Z,100681.06
2018-06-04T20:01:59.324Z,100665.06
2018-06-04T20:04:27.051Z,100673.73
2018-06-04T20:06:54.598Z,100679.82
2018-06-04T20:09:22.410Z,100682.31
2018-06-04T20:11:49.574Z,100687.94
2018-06-04T20:14:16.546Z,100685.64
2018-06-04T20:16:44.245Z,100680.19
2018-06-04T20:19:11.823Z,100690.30
2018-06-04T20:21:39.432Z,100615.00
2018-06-04T20:24:07.166Z,100700.95
2018-06-04T20:26:34.772Z,100698.97
2018-06-04T20:29:02.350Z,100701.91
2018-06-04T20:31:29.902Z,100702.28
2018-06-04T20:33:57.515Z,100697.69
2018-06-04T20:36:25.107Z,100702.42
2018-06-04T20:38:52.704Z,100703.94
2018-06-04T20:41:20.454Z,100701.46
2018-06-04T20:43:48.067Z,100710.10
2018-06-04T20:46:15.885Z,100709.36
2018-06-04T20:48:43.710Z,100716.67
2018-06-04T20:51:11.533Z,100708.56
2018-06-04T20:53:39.241Z,100719.97
2018-06-04T20:56:07.023Z,100721.56
2018-06-04T20:58:34.573Z,100727.25
2018-06-04T21:01:02.229Z,100723.98
2018-06-04T21:03:29.922Z,100728.70
2018-06-04T21:05:57.533Z,100728.05
2018-06-04T21:08:25.267Z,100727.34
2018-06-04T21:10:53.435Z,100727.06
2018-06-04T21:13:21.028Z,100732.94
2018-06-04T21:18:58.328Z,100735.26
2018-06-04T21:21:25.987Z,100732.85
2018-06-04T21:27:03.966Z,100732.37
2018-06-04T21:29:31.586Z,100742.37
2018-06-04T21:31:59.217Z,100733.22
2018-06-04T21:36:33.255Z,100738.19
2018-06-04T21:39:00.359Z,100737.57
2018-06-04T21:41:27.337Z,100734.53
2018-06-04T21:45:08.883Z,100738.70
2018-06-04T21:47:36.406Z,100740.27
2018-06-04T21:50:04.129Z,100750.30
2018-06-04T21:52:31.998Z,100740.78
2018-06-04T21:54:59.687Z,100746.72
2018-06-04T21:57:27.340Z,100755.71
2018-06-04T21:59:55.232Z,100748.39
2018-06-04T22:02:22.830Z,100743.61
2018-06-04T22:04:50.497Z,100757.38
2018-06-04T22:07:17.756Z,100754.80
2018-06-04T22:09:44.818Z,100753.62
2018-06-04T22:12:11.792Z,100751.55
2018-06-04T22:14:39.059Z,100727.08
2018-06-04T22:17:06.038Z,100756.70
2018-06-04T22:19:32.962Z,100764.08
2018-06-04T22:22:00.218Z,100768.16
2018-06-04T22:24:27.226Z,100755.02
2018-06-04T22:26:54.254Z,100763.20
2018-06-04T22:29:21.700Z,100762.98
2018-06-04T22:31:48.673Z,100759.53
2018-06-04T22:34:16.262Z,100722.50
2018-06-04T22:36:44.149Z,100770.91
2018-06-04T22:39:11.133Z,100768.41
2018-06-04T22:41:38.132Z,100772.93
2018-06-04T22:44:05.405Z,100778.78
2018-06-04T22:46:33.030Z,100771.05
2018-06-04T22:49:04.490Z,100779.67
2018-06-04T22:51:32.015Z,100781.12
2018-06-04T22:53:59.720Z,100787.47
2018-06-04T22:56:26.633Z,100789.82
2018-06-04T22:58:54.079Z,100793.97
2018-06-04T23:01:21.147Z,100782.54
2018-06-04T23:03:48.139Z,100799.02
2018-06-04T23:06:15.703Z,100795.60
2018-06-04T23:08:42.677Z,100800.13
2018-06-04T23:11:10.308Z,100800.20
2018-06-04T23:13:38.307Z,100748.09
2018-06-04T23:16:05.886Z,100795.49
2018-06-04T23:18:34.153Z,100796.90
2018-06-04T23:21:02.223Z,100800.50
2018-06-04T23:23:29.264Z,100797.13
2018-06-04T23:25:56.892Z,100798.53
2018-06-04T23:28:24.909Z,100797.36
2018-06-04T23:30:52.723Z,100805.41
2018-06-04T23:33:20.311Z,100796.78
2018-06-04T23:35:48.419Z,100803.92
2018-06-04T23:38:15.385Z,100793.90
2018-06-04T23:40:43.005Z,100800.31
2018-06-04T23:43:11.033Z,100804.90
2018-06-04T23:45:38.630Z,100807.63
2018-06-04T23:48:06.369Z,100805.50
2018-06-04T23:50:34.477Z,100808.23
2018-06-04T23:53:02.119Z,100811.38
2018-06-04T23:55:29.806Z,100816.27
2018-06-04T23:57:57.678Z,100819.50
